sensor_id;sensor_type;location;lat;lon;timestamp;pressure;altitude;pressure_sealevel;temperature;humidity
13800;BME280;6971;50.028;9.258;2023-03-04T00:00:15;100084.75;;;-4.08;100.00
13800;BME280;6971;50.028;9.258;2023-03-04T00:05:16;100092.38;;;-4.16;100.00
13800;BME280;6971;50.028;9.258;2023-03-04T00:10:16;100088.72;;;-4.27;100.00
13800;BME280;6971;50.028;9.258;2023-03-04T00:15:17;100081.84;;;-4.28;100.00
13800;BME280;6971;50.028;9.258;2023-03-04T00:20:17;100098.75;;;-4.44;100.00
13800;BME280;6971;50.028;9.258;2023-03-04T00:25:18;100101.31;;;-4.44;100.00
13800;BME280;6971;50.028;9.258;2023-03-04T00:30:18;100093.63;;;-4.43;100.00
13800;BME280;6971;50.028;9.258;2023-03-04T00:35:18;100107.59;;;-4.28;100.00
13800;BME280;6971;50.028;9.258;2023-03-04T00:40:19;100105.56;;;-4.47;100.00
13800;BME280;6971;50.028;9.258;2023-03-04T00:45:19;100101.16;;;-4.54;100.00
13800;BME280;6971;50.028;9.258;2023-03-04T00:50:19;100091.06;;;-4.43;100.00
13800;BME280;6971;50.028;9.258;2023-03-04T00:55:20;100097.94;;;-4.42;100.00
13800;BME280;6971;50.028;9.258;2023-03-04T01:00:20;100095.34;;;-4.42;100.00
13800;BME280;6971;50.028;9.258;2023-03-04T01:05:21;100091.06;;;-4.43;100.00
13800;BME280;6971;50.028;9.258;2023-03-04T01:10:21;100084.44;;;-4.28;100.00
13800;BME280;6971;50.028;9.258;2023-03-04T01:15:22;100086.94;;;-4.32;100.00
13800;BME280;6971;50.028;9.258;2023-03-04T01:20:23;100088.50;;;-4.41;100.00
13800;BME280;6971;50.028;9.258;2023-03-04T01:25:23;100091.88;;;-4.44;100.00
13800;BME280;6971;50.028;9.258;2023-03-04T01:30:24;100078.03;;;-4.52;100.00
13800;BME280;6971;50.028;9.258;2023-03-04T01:35:24;100071.50;;;-4.32;100.00
13800;BME280;6971;50.028;9.258;2023-03-04T01:40:24;100063.59;;;-4.42;100.00
13800;BME280;6971;50.028;9.258;2023-03-04T01:45:25;100054.06;;;-4.50;100.00
13800;BME280;6971;50.028;9.258;2023-03-04T01:50:33;100053.06;;;-4.56;100.00
13800;BME280;6971;50.028;9.258;2023-03-04T01:55:34;100053.59;;;-4.75;100.00
13800;BME280;6971;50.028;9.258;2023-03-04T02:00:34;100042.38;;;-4.80;100.00
13800;BME280;6971;50.028;9.258;2023-03-04T02:05:38;100052.75;;;-4.74;100.00
13800;BME280;6971;50.028;9.258;2023-03-04T02:10:41;100047.16;;;-4.52;100.00
13800;BME280;6971;50.028;9.258;2023-03-04T02:15:44;100043.88;;;-4.42;100.00
13800;BME280;6971;50.028;9.258;2023-03-04T02:20:55;100043.13;;;-4.36;100.00
13800;BME280;6971;50.028;9.258;2023-03-04T02:31:30;100035.06;;;-4.02;100.00
13800;BME280;6971;50.028;9.258;2023-03-04T02:36:32;100026.16;;;-3.66;100.00
13800;BME280;6971;50.028;9.258;2023-03-04T02:41:33;100023.75;;;-3.54;100.00
13800;BME280;6971;50.028;9.258;2023-03-04T02:46:34;100017.72;;;-3.54;100.00
13800;BME280;6971;50.028;9.258;2023-03-04T02:51:34;100020.25;;;-3.57;100.00
13800;BME280;6971;50.028;9.258;2023-03-04T02:56:34;100015.25;;;-3.45;100.00
13800;BME280;6971;50.028;9.258;2023-03-04T03:01:34;100015.34;;;-3.35;100.00
13800;BME280;6971;50.028;9.258;2023-03-04T03:06:35;100007.19;;;-3.02;100.00
13800;BME280;6971;50.028;9.258;2023-03-04T03:11:35;100006.38;;;-2.94;100.00
13800;BME280;6971;50.028;9.258;2023-03-04T03:16:36;100009.66;;;-3.08;100.00
13800;BME280;6971;50.028;9.258;2023-03-04T03:21:36;100006.31;;;-3.00;100.00
13800;BME280;6971;50.028;9.258;2023-03-04T03:26:36;100008.75;;;-3.13;100.00
13800;BME280;6971;50.028;9.258;2023-03-04T03:31:41;100009.91;;;-2.86;100.00
13800;BME280;6971;50.028;9.258;2023-03-04T03:36:42;100011.72;;;-2.79;100.00
13800;BME280;6971;50.028;9.258;2023-03-04T03:41:42;100015.16;;;-2.77;100.00
13800;BME280;6971;50.028;9.258;2023-03-04T03:46:42;100009.31;;;-2.60;100.00
13800;BME280;6971;50.028;9.258;2023-03-04T03:51:43;100007.41;;;-2.77;100.00
13800;BME280;6971;50.028;9.258;2023-03-04T03:56:43;100009.25;;;-2.66;100.00
13800;BME280;6971;50.028;9.258;2023-03-04T04:01:44;100004.25;;;-2.44;100.00
13800;BME280;6971;50.028;9.258;2023-03-04T04:06:44;100000.78;;;-2.48;100.00
13800;BME280;6971;50.028;9.258;2023-03-04T04:11:45;99997.44;;;-2.36;100.00
13800;BME280;6971;50.028;9.258;2023-03-04T04:16:45;100004.31;;;-2.40;100.00
13800;BME280;6971;50.028;9.258;2023-03-04T04:21:46;100005.19;;;-2.39;100.00
13800;BME280;6971;50.028;9.258;2023-03-04T04:26:46;99996.47;;;-2.51;100.00
13800;BME280;6971;50.028;9.258;2023-03-04T04:31:47;99999.19;;;-2.35;100.00
13800;BME280;6971;50.028;9.258;2023-03-04T04:36:47;99995.84;;;-2.18;100.00
13800;BME280;6971;50.028;9.258;2023-03-04T04:41:47;99995.00;;;-2.20;100.00
13800;BME280;6971;50.028;9.258;2023-03-04T04:46:48;99994.03;;;-2.32;100.00
13800;BME280;6971;50.028;9.258;2023-03-04T04:51:48;99991.47;;;-2.30;100.00
13800;BME280;6971;50.028;9.258;2023-03-04T04:56:48;99993.22;;;-2.26;100.00
13800;BME280;6971;50.028;9.258;2023-03-04T05:01:51;99992.47;;;-2.13;100.00
13800;BME280;6971;50.028;9.258;2023-03-04T05:06:51;99991.59;;;-2.16;100.00
13800;BME280;6971;50.028;9.258;2023-03-04T05:11:52;99980.34;;;-2.20;100.00
13800;BME280;6971;50.028;9.258;2023-03-04T05:16:52;99984.59;;;-2.30;100.00
13800;BME280;6971;50.028;9.258;2023-03-04T05:21:52;99988.97;;;-2.19;100.00
13800;BME280;6971;50.028;9.258;2023-03-04T05:26:53;99994.22;;;-2.08;100.00
13800;BME280;6971;50.028;9.258;2023-03-04T05:31:53;99990.69;;;-2.21;100.00
13800;BME280;6971;50.028;9.258;2023-03-04T05:36:54;99996.63;;;-2.30;100.00
13800;BME280;6971;50.028;9.258;2023-03-04T05:41:54;99987.19;;;-2.27;100.00
13800;BME280;6971;50.028;9.258;2023-03-04T05:46:54;99988.06;;;-2.25;100.00
13800;BME280;6971;50.028;9.258;2023-03-04T05:51:55;99988.91;;;-2.29;100.00
13800;BME280;6971;50.028;9.258;2023-03-04T05:56:55;99997.66;;;-2.10;100.00
13800;BME280;6971;50.028;9.258;2023-03-04T06:01:55;99995.91;;;-2.09;100.00
13800;BME280;6971;50.028;9.258;2023-03-04T06:06:56;100000.22;;;-2.11;100.00
13800;BME280;6971;50.028;9.258;2023-03-04T06:11:56;100002.84;;;-2.08;100.00
13800;BME280;6971;50.028;9.258;2023-03-04T06:16:56;100005.44;;;-2.08;100.00
13800;BME280;6971;50.028;9.258;2023-03-04T06:21:58;100012.34;;;-2.01;100.00
13800;BME280;6971;50.028;9.258;2023-03-04T06:26:59;100015.88;;;-1.89;100.00
13800;BME280;6971;50.028;9.258;2023-03-04T06:31:59;100022.78;;;-1.85;100.00
13800;BME280;6971;50.028;9.258;2023-03-04T06:37:00;100025.41;;;-1.77;100.00
13800;BME280;6971;50.028;9.258;2023-03-04T06:42:02;100022.91;;;-1.66;100.00
13800;BME280;6971;50.028;9.258;2023-03-04T06:47:03;100034.88;;;-1.82;100.00
13800;BME280;6971;50.028;9.258;2023-03-04T06:52:03;100030.66;;;-1.66;100.00
13800;BME280;6971;50.028;9.258;2023-03-04T06:57:04;100051.34;;;-1.66;100.00
13800;BME280;6971;50.028;9.258;2023-03-04T07:02:05;100042.78;;;-1.54;100.00
13800;BME280;6971;50.028;9.258;2023-03-04T07:07:08;100045.38;;;-1.53;100.00
13800;BME280;6971;50.028;9.258;2023-03-04T07:12:09;100042.78;;;-1.54;100.00
13800;BME280;6971;50.028;9.258;2023-03-04T07:17:09;100041.94;;;-1.52;100.00
13800;BME280;6971;50.028;9.258;2023-03-04T07:22:10;100056.56;;;-1.62;100.00
13800;BME280;6971;50.028;9.258;2023-03-04T07:27:10;100060.13;;;-1.36;100.00
13800;BME280;6971;50.028;9.258;2023-03-04T07:32:11;100060.19;;;-1.21;100.00
13800;BME280;6971;50.028;9.258;2023-03-04T07:37:11;100071.47;;;-1.09;100.00
13800;BME280;6971;50.028;9.258;2023-03-04T07:42:12;100062.81;;;-1.10;100.00
13800;BME280;6971;50.028;9.258;2023-03-04T07:47:12;100062.91;;;-0.93;100.00
13800;BME280;6971;50.028;9.258;2023-03-04T07:52:13;100062.00;;;-1.02;100.00
13800;BME280;6971;50.028;9.258;2023-03-04T07:57:13;100066.34;;;-0.89;100.00
13800;BME280;6971;50.028;9.258;2023-03-04T08:02:14;100071.50;;;-0.94;100.00
13800;BME280;6971;50.028;9.258;2023-03-04T08:07:14;100074.06;;;-1.00;100.00
13800;BME280;6971;50.028;9.258;2023-03-04T08:12:15;100077.53;;;-0.98;100.00
13800;BME280;6971;50.028;9.258;2023-03-04T08:17:15;100083.63;;;-0.80;100.00
13800;BME280;6971;50.028;9.258;2023-03-04T08:22:16;100093.16;;;-0.79;100.00
13800;BME280;6971;50.028;9.258;2023-03-04T08:27:16;100096.63;;;-0.68;100.00
13800;BME280;6971;50.028;9.258;2023-03-04T08:32:16;100089.66;;;-0.86;100.00
13800;BME280;6971;50.028;9.258;2023-03-04T08:37:17;100089.69;;;-0.73;100.00
13800;BME280;6971;50.028;9.258;2023-03-04T08:42:17;100097.56;;;-0.37;100.00
13800;BME280;6971;50.028;9.258;2023-03-04T08:47:17;100094.91;;;-0.58;100.00
13800;BME280;6971;50.028;9.258;2023-03-04T08:52:18;100088.91;;;-0.52;100.00
13800;BME280;6971;50.028;9.258;2023-03-04T08:57:18;100099.25;;;-0.46;100.00
13800;BME280;6971;50.028;9.258;2023-03-04T09:02:19;100095.81;;;-0.32;100.00
13800;BME280;6971;50.028;9.258;2023-03-04T09:07:19;100095.84;;;-0.09;100.00
13800;BME280;6971;50.028;9.258;2023-03-04T09:12:19;100091.53;;;-0.16;100.00
13800;BME280;6971;50.028;9.258;2023-03-04T09:17:20;100093.25;;;-0.29;100.00
13800;BME280;6971;50.028;9.258;2023-03-04T09:22:20;100095.00;;;0.00;100.00
13800;BME280;6971;50.028;9.258;2023-03-04T09:27:20;100087.22;;;0.06;100.00
13800;BME280;6971;50.028;9.258;2023-03-04T09:32:21;100089.78;;;0.27;100.00
13800;BME280;6971;50.028;9.258;2023-03-04T09:37:21;100082.03;;;0.28;100.00
13800;BME280;6971;50.028;9.258;2023-03-04T09:42:30;100083.75;;;0.23;100.00
13800;BME280;6971;50.028;9.258;2023-03-04T09:47:33;100080.25;;;0.55;100.00
13800;BME280;6971;50.028;9.258;2023-03-04T09:53:04;100086.34;;;0.28;100.00
13800;BME280;6971;50.028;9.258;2023-03-04T10:03:15;100085.41;;;0.69;100.00
13800;BME280;6971;50.028;9.258;2023-03-04T10:08:37;100084.44;;;0.98;100.00
13800;BME280;6971;50.028;9.258;2023-03-04T10:18:55;100068.16;;;0.54;100.00
13800;BME280;6971;50.028;9.258;2023-03-04T10:24:00;100071.41;;;1.15;100.00
13800;BME280;6971;50.028;9.258;2023-03-04T10:29:00;100064.38;;;1.27;100.00
13800;BME280;6971;50.028;9.258;2023-03-04T10:34:04;100060.84;;;1.43;100.00
13800;BME280;6971;50.028;9.258;2023-03-04T10:39:26;100064.28;;;1.44;100.00
13800;BME280;6971;50.028;9.258;2023-03-04T10:44:29;100057.53;;;1.10;100.00
13800;BME280;6971;50.028;9.258;2023-03-04T10:49:30;100055.56;;;1.54;100.00
13800;BME280;6971;50.028;9.258;2023-03-04T10:54:51;100047.53;;;1.87;99.03
13800;BME280;6971;50.028;9.258;2023-03-04T11:00:01;100040.47;;;2.03;98.82
13800;BME280;6971;50.028;9.258;2023-03-04T11:10:21;100032.59;;;2.11;96.01
13800;BME280;6971;50.028;9.258;2023-03-04T11:15:23;100032.31;;;2.39;94.45
13800;BME280;6971;50.028;9.258;2023-03-04T11:25:34;100031.16;;;2.64;92.84
13800;BME280;6971;50.028;9.258;2023-03-04T11:30:40;100019.25;;;2.44;91.18
13800;BME280;6971;50.028;9.258;2023-03-04T11:36:05;100018.22;;;2.60;90.55
13800;BME280;6971;50.028;9.258;2023-03-04T11:41:24;100016.91;;;2.96;88.88
13800;BME280;6971;50.028;9.258;2023-03-04T11:46:42;100001.38;;;2.88;88.53
13800;BME280;6971;50.028;9.258;2023-03-04T11:52:08;100001.28;;;2.96;86.73
13800;BME280;6971;50.028;9.258;2023-03-04T11:57:41;100004.56;;;3.10;84.97
13800;BME280;6971;50.028;9.258;2023-03-04T12:03:03;100006.09;;;3.24;84.18
13800;BME280;6971;50.028;9.258;2023-03-04T12:08:26;99997.25;;;3.34;83.41
13800;BME280;6971;50.028;9.258;2023-03-04T12:19:13;99992.13;;;3.31;81.89
13800;BME280;6971;50.028;9.258;2023-03-04T12:24:38;99989.41;;;3.36;82.44
13800;BME280;6971;50.028;9.258;2023-03-04T12:29:51;99979.09;;;3.30;81.70
13800;BME280;6971;50.028;9.258;2023-03-04T12:40:31;99967.34;;;3.59;81.27
13800;BME280;6971;50.028;9.258;2023-03-04T12:45:52;99948.25;;;3.58;82.16
13800;BME280;6971;50.028;9.258;2023-03-04T12:56:21;99945.00;;;3.94;79.57
13800;BME280;6971;50.028;9.258;2023-03-04T13:01:42;99936.91;;;3.61;78.53
13800;BME280;6971;50.028;9.258;2023-03-04T13:12:51;99923.94;;;4.05;78.37
13800;BME280;6971;50.028;9.258;2023-03-04T13:18:00;99915.28;;;4.04;77.99
13800;BME280;6971;50.028;9.258;2023-03-04T13:23:21;99914.53;;;3.98;78.39
13800;BME280;6971;50.028;9.258;2023-03-04T13:28:35;99908.78;;;4.26;78.42
13800;BME280;6971;50.028;9.258;2023-03-04T13:38:37;99890.88;;;4.50;77.50
13800;BME280;6971;50.028;9.258;2023-03-04T13:43:46;99894.59;;;3.95;78.24
13800;BME280;6971;50.028;9.258;2023-03-04T13:59:12;99878.47;;;3.73;78.74
13800;BME280;6971;50.028;9.258;2023-03-04T14:09:20;99863.03;;;4.08;78.22
13800;BME280;6971;50.028;9.258;2023-03-04T14:14:24;99866.06;;;3.86;77.90
13800;BME280;6971;50.028;9.258;2023-03-04T14:19:31;99853.69;;;3.96;77.34
13800;BME280;6971;50.028;9.258;2023-03-04T14:24:32;99862.09;;;4.10;77.93
13800;BME280;6971;50.028;9.258;2023-03-04T14:29:32;99853.19;;;4.22;77.68
13800;BME280;6971;50.028;9.258;2023-03-04T14:34:35;99855.09;;;4.14;77.84
13800;BME280;6971;50.028;9.258;2023-03-04T14:39:37;99847.13;;;4.20;77.35
13800;BME280;6971;50.028;9.258;2023-03-04T14:44:42;99856.16;;;4.03;77.80
13800;BME280;6971;50.028;9.258;2023-03-04T14:49:45;99834.88;;;3.81;78.15
13800;BME280;6971;50.028;9.258;2023-03-04T14:55:00;99837.31;;;3.89;78.30
13800;BME280;6971;50.028;9.258;2023-03-04T15:00:27;99833.06;;;3.85;77.87
13800;BME280;6971;50.028;9.258;2023-03-04T15:05:31;99835.22;;;3.64;78.76
13800;BME280;6971;50.028;9.258;2023-03-04T15:10:34;99824.06;;;3.56;79.84
13800;BME280;6971;50.028;9.258;2023-03-04T15:15:42;99828.28;;;3.61;80.11
13800;BME280;6971;50.028;9.258;2023-03-04T15:20:52;99818.72;;;3.62;80.26
13800;BME280;6971;50.028;9.258;2023-03-04T15:25:55;99822.97;;;3.68;80.23
13800;BME280;6971;50.028;9.258;2023-03-04T15:30:59;99819.78;;;3.53;80.35
13800;BME280;6971;50.028;9.258;2023-03-04T15:36:01;99813.69;;;3.52;80.56
13800;BME280;6971;50.028;9.258;2023-03-04T15:41:01;99815.41;;;3.52;81.27
13800;BME280;6971;50.028;9.258;2023-03-04T15:46:02;99812.19;;;3.39;81.41
13800;BME280;6971;50.028;9.258;2023-03-04T15:51:03;99801.59;;;3.48;81.53
13800;BME280;6971;50.028;9.258;2023-03-04T15:56:04;99811.25;;;3.43;81.35
13800;BME280;6971;50.028;9.258;2023-03-04T16:01:10;99806.63;;;3.58;82.19
13800;BME280;6971;50.028;9.258;2023-03-04T16:06:14;99811.09;;;3.51;82.19
13800;BME280;6971;50.028;9.258;2023-03-04T16:11:19;99802.69;;;3.36;82.15
13800;BME280;6971;50.028;9.258;2023-03-04T16:16:20;99802.47;;;3.49;82.30
13800;BME280;6971;50.028;9.258;2023-03-04T16:21:21;99806.09;;;3.40;83.02
13800;BME280;6971;50.028;9.258;2023-03-04T16:26:34;99806.97;;;3.39;82.75
13800;BME280;6971;50.028;9.258;2023-03-04T16:31:34;99801.38;;;3.61;82.84
13800;BME280;6971;50.028;9.258;2023-03-04T16:36:35;99802.47;;;3.49;82.42
13800;BME280;6971;50.028;9.258;2023-03-04T16:41:35;99794.91;;;3.33;82.62
13800;BME280;6971;50.028;9.258;2023-03-04T16:46:36;99792.38;;;3.30;82.51
13800;BME280;6971;50.028;9.258;2023-03-04T16:51:42;99791.47;;;3.33;83.28
13800;BME280;6971;50.028;9.258;2023-03-04T16:56:44;99799.22;;;3.36;82.68
13800;BME280;6971;50.028;9.258;2023-03-04T17:01:44;99798.50;;;3.28;83.22
13800;BME280;6971;50.028;9.258;2023-03-04T17:06:45;99801.25;;;3.18;83.88
13800;BME280;6971;50.028;9.258;2023-03-04T17:11:46;99810.69;;;3.27;83.47
13800;BME280;6971;50.028;9.258;2023-03-04T17:16:46;99796.72;;;3.30;83.04
13800;BME280;6971;50.028;9.258;2023-03-04T17:21:47;99807.19;;;3.28;83.53
13800;BME280;6971;50.028;9.258;2023-03-04T17:26:47;99805.53;;;3.22;83.93
13800;BME280;6971;50.028;9.258;2023-03-04T17:31:47;99802.41;;;3.02;84.39
13800;BME280;6971;50.028;9.258;2023-03-04T17:36:48;99804.03;;;3.09;84.88
13800;BME280;6971;50.028;9.258;2023-03-04T17:41:50;99803.28;;;3.02;85.91
13800;BME280;6971;50.028;9.258;2023-03-04T17:46:50;99809.25;;;3.09;85.31
13800;BME280;6971;50.028;9.258;2023-03-04T17:51:51;99810.00;;;3.14;84.81
13800;BME280;6971;50.028;9.258;2023-03-04T17:56:52;99813.38;;;3.19;85.27
13800;BME280;6971;50.028;9.258;2023-03-04T18:01:52;99804.00;;;3.10;85.22
13800;BME280;6971;50.028;9.258;2023-03-04T18:06:52;99798.66;;;3.18;85.26
13800;BME280;6971;50.028;9.258;2023-03-04T18:11:53;99810.09;;;3.11;85.89
13800;BME280;6971;50.028;9.258;2023-03-04T18:16:55;99798.81;;;3.09;85.60
13800;BME280;6971;50.028;9.258;2023-03-04T18:21:56;99796.16;;;3.13;86.01
13800;BME280;6971;50.028;9.258;2023-03-04T18:26:59;99791.03;;;3.07;86.02
13800;BME280;6971;50.028;9.258;2023-03-04T18:31:59;99788.56;;;2.99;87.42
13800;BME280;6971;50.028;9.258;2023-03-04T18:36:59;99795.47;;;3.00;87.16
13800;BME280;6971;50.028;9.258;2023-03-04T18:42:00;99786.75;;;3.03;88.25
13800;BME280;6971;50.028;9.258;2023-03-04T18:47:03;99788.75;;;2.87;90.49
13800;BME280;6971;50.028;9.258;2023-03-04T18:52:08;99777.50;;;2.86;91.05
13800;BME280;6971;50.028;9.258;2023-03-04T18:57:10;99784.13;;;3.05;91.31
13800;BME280;6971;50.028;9.258;2023-03-04T19:07:26;99775.16;;;2.69;95.04
13800;BME280;6971;50.028;9.258;2023-03-04T19:12:27;99787.38;;;2.64;99.48
13800;BME280;6971;50.028;9.258;2023-03-04T19:17:27;99791.78;;;2.60;100.00
13800;BME280;6971;50.028;9.258;2023-03-04T19:22:32;99786.69;;;2.53;100.00
13800;BME280;6971;50.028;9.258;2023-03-04T19:27:32;99796.97;;;2.62;100.00
13800;BME280;6971;50.028;9.258;2023-03-04T19:32:32;99789.25;;;2.56;100.00
13800;BME280;6971;50.028;9.258;2023-03-04T19:37:33;99786.63;;;2.57;100.00
13800;BME280;6971;50.028;9.258;2023-03-04T19:42:33;99779.72;;;2.56;100.00
13800;BME280;6971;50.028;9.258;2023-03-04T19:47:36;99772.78;;;2.55;100.00
13800;BME280;6971;50.028;9.258;2023-03-04T19:52:36;99776.38;;;2.46;100.00
13800;BME280;6971;50.028;9.258;2023-03-04T19:57:37;99766.84;;;2.47;100.00
13800;BME280;6971;50.028;9.258;2023-03-04T20:02:37;99768.69;;;2.39;100.00
13800;BME280;6971;50.028;9.258;2023-03-04T20:07:39;99772.22;;;2.36;100.00
13800;BME280;6971;50.028;9.258;2023-03-04T20:12:43;99766.25;;;2.29;100.00
13800;BME280;6971;50.028;9.258;2023-03-04T20:17:43;99768.88;;;2.25;100.00
13800;BME280;6971;50.028;9.258;2023-03-04T20:22:44;99771.47;;;2.26;100.00
13800;BME280;6971;50.028;9.258;2023-03-04T20:27:46;99767.97;;;2.29;100.00
13800;BME280;6971;50.028;9.258;2023-03-04T20:32:47;99763.66;;;2.28;100.00
13800;BME280;6971;50.028;9.258;2023-03-04T20:37:47;99775.00;;;2.22;100.00
13800;BME280;6971;50.028;9.258;2023-03-04T20:42:47;99775.88;;;2.21;100.00
13800;BME280;6971;50.028;9.258;2023-03-04T20:47:48;99781.00;;;2.26;100.00
13800;BME280;6971;50.028;9.258;2023-03-04T20:52:48;99775.72;;;2.32;100.00
13800;BME280;6971;50.028;9.258;2023-03-04T20:57:49;99774.94;;;2.27;100.00
13800;BME280;6971;50.028;9.258;2023-03-04T21:02:49;99775.03;;;2.17;100.00
13800;BME280;6971;50.028;9.258;2023-03-04T21:07:50;99784.47;;;2.28;100.00
13800;BME280;6971;50.028;9.258;2023-03-04T21:12:50;99773.31;;;2.19;100.00
13800;BME280;6971;50.028;9.258;2023-03-04T21:17:50;99772.53;;;2.11;100.00
13800;BME280;6971;50.028;9.258;2023-03-04T21:22:51;99766.47;;;2.12;100.00
13800;BME280;6971;50.028;9.258;2023-03-04T21:27:51;99765.38;;;2.29;100.00
13800;BME280;6971;50.028;9.258;2023-03-04T21:32:51;99764.56;;;2.24;100.00
13800;BME280;6971;50.028;9.258;2023-03-04T21:37:53;99769.25;;;2.00;100.00
13800;BME280;6971;50.028;9.258;2023-03-04T21:42:53;99767.25;;;2.17;100.00
13800;BME280;6971;50.028;9.258;2023-03-04T21:47:53;99754.25;;;2.17;100.00
13800;BME280;6971;50.028;9.258;2023-03-04T21:52:54;99752.69;;;2.04;100.00
13800;BME280;6971;50.028;9.258;2023-03-04T21:57:54;99756.19;;;2.01;100.00
13800;BME280;6971;50.028;9.258;2023-03-04T22:02:54;99740.47;;;2.11;100.00
13800;BME280;6971;50.028;9.258;2023-03-04T22:07:55;99737.94;;;2.06;100.00
13800;BME280;6971;50.028;9.258;2023-03-04T22:12:55;99745.91;;;1.95;100.00
13800;BME280;6971;50.028;9.258;2023-03-04T22:17:55;99739.81;;;1.94;100.00
13800;BME280;6971;50.028;9.258;2023-03-04T22:22:56;99735.47;;;1.98;100.00
13800;BME280;6971;50.028;9.258;2023-03-04T22:27:56;99746.78;;;1.94;100.00
13800;BME280;6971;50.028;9.258;2023-03-04T22:32:56;99735.47;;;1.97;100.00
13800;BME280;6971;50.028;9.258;2023-03-04T22:37:57;99748.53;;;1.90;100.00
13800;BME280;6971;50.028;9.258;2023-03-04T22:42:57;99743.34;;;1.90;100.00
13800;BME280;6971;50.028;9.258;2023-03-04T22:47:58;99739.00;;;1.91;100.00
13800;BME280;6971;50.028;9.258;2023-03-04T22:52:59;99742.53;;;1.88;100.00
13800;BME280;6971;50.028;9.258;2023-03-04T22:58:00;99731.31;;;1.83;100.00
13800;BME280;6971;50.028;9.258;2023-03-04T23:03:01;99741.72;;;1.83;100.00
13800;BME280;6971;50.028;9.258;2023-03-04T23:08:01;99735.75;;;1.76;100.00
13800;BME280;6971;50.028;9.258;2023-03-04T23:13:01;99731.34;;;1.80;100.00
13800;BME280;6971;50.028;9.258;2023-03-04T23:18:02;99732.16;;;1.85;100.00
13800;BME280;6971;50.028;9.258;2023-03-04T23:23:02;99723.53;;;1.83;100.00
13800;BME280;6971;50.028;9.258;2023-03-04T23:28:03;99726.19;;;1.77;100.00
13800;BME280;6971;50.028;9.258;2023-03-04T23:33:03;99730.53;;;1.78;100.00
13800;BME280;6971;50.028;9.258;2023-03-04T23:38:04;99725.28;;;1.79;100.00
13800;BME280;6971;50.028;9.258;2023-03-04T23:43:04;99711.38;;;1.83;100.00
13800;BME280;6971;50.028;9.258;2023-03-04T23:48:04;99715.75;;;1.81;100.00
13800;BME280;6971;50.028;9.258;2023-03-04T23:53:05;99712.22;;;1.87;100.00
13800;BME280;6971;50.028;9.258;2023-03-04T23:58:05;99709.00;;;1.68;100.00
